Chimayo, New Mexico
Current Conditions -  °F | °C
As of 3:55 PM on Wednesday 26 Nov 2014 (Local Time) from KLAM Reporting Station
Clear Clear  
Wind Chill:   Ceiling: Unl
Heat Index:   Visibility: 10mi
Dew Point: -6°   Wind: 5mph
Humidity: 36%   Direction: 80°E
Pressure: 30.37"   Gusts: NA
Location:  36°N, 105.93°W
Report Text: KLAM 262255Z AUTO 08004KT 10SM CLR 09/M05 A3037 RMK AO2 T00881055
Loading
Personal Weather Stations






























Interactive Weather Map New forecast layout! Learn more

10-Day Weather Forecast

Advertisements
Track Severe Weather on mobile